sensor_id;sensor_type;location;lat;lon;timestamp;temperature;humidity
17659;DHT22;8948;51.534;8.262;2023-04-06T00:03:27;5.70;48.20
17659;DHT22;8948;51.534;8.262;2023-04-06T00:08:28;5.60;48.20
17659;DHT22;8948;51.534;8.262;2023-04-06T00:13:29;5.60;48.50
17659;DHT22;8948;51.534;8.262;2023-04-06T00:18:29;5.60;48.70
17659;DHT22;8948;51.534;8.262;2023-04-06T00:23:30;5.50;48.30
17659;DHT22;8948;51.534;8.262;2023-04-06T00:28:31;5.40;49.00
17659;DHT22;8948;51.534;8.262;2023-04-06T00:33:32;5.30;48.70
17659;DHT22;8948;51.534;8.262;2023-04-06T00:38:33;5.20;48.90
17659;DHT22;8948;51.534;8.262;2023-04-06T00:43:33;5.20;48.70
17659;DHT22;8948;51.534;8.262;2023-04-06T00:48:34;5.30;48.20
17659;DHT22;8948;51.534;8.262;2023-04-06T00:53:34;5.20;48.80
17659;DHT22;8948;51.534;8.262;2023-04-06T00:58:35;5.20;48.60
17659;DHT22;8948;51.534;8.262;2023-04-06T01:03:38;5.10;48.80
17659;DHT22;8948;51.534;8.262;2023-04-06T01:08:39;5.00;48.80
17659;DHT22;8948;51.534;8.262;2023-04-06T01:13:40;5.00;48.30
17659;DHT22;8948;51.534;8.262;2023-04-06T01:18:40;5.00;48.50
17659;DHT22;8948;51.534;8.262;2023-04-06T01:23:44;5.00;48.40
17659;DHT22;8948;51.534;8.262;2023-04-06T01:28:45;4.80;49.10
17659;DHT22;8948;51.534;8.262;2023-04-06T01:33:46;4.80;48.70
17659;DHT22;8948;51.534;8.262;2023-04-06T01:38:47;4.90;48.60
17659;DHT22;8948;51.534;8.262;2023-04-06T01:43:48;4.90;48.40
17659;DHT22;8948;51.534;8.262;2023-04-06T01:48:49;4.90;48.10
17659;DHT22;8948;51.534;8.262;2023-04-06T01:53:50;4.90;47.90
17659;DHT22;8948;51.534;8.262;2023-04-06T01:58:51;4.90;48.10
17659;DHT22;8948;51.534;8.262;2023-04-06T02:03:51;5.00;47.90
17659;DHT22;8948;51.534;8.262;2023-04-06T02:08:52;5.00;48.20
17659;DHT22;8948;51.534;8.262;2023-04-06T02:13:53;5.00;47.80
17659;DHT22;8948;51.534;8.262;2023-04-06T02:18:53;4.90;48.10
17659;DHT22;8948;51.534;8.262;2023-04-06T02:23:54;4.90;48.40
17659;DHT22;8948;51.534;8.262;2023-04-06T02:28:55;4.80;48.70
17659;DHT22;8948;51.534;8.262;2023-04-06T02:33:55;4.60;49.30
17659;DHT22;8948;51.534;8.262;2023-04-06T02:38:56;4.60;49.70
17659;DHT22;8948;51.534;8.262;2023-04-06T02:43:57;4.60;49.20
17659;DHT22;8948;51.534;8.262;2023-04-06T02:48:57;4.60;48.90
17659;DHT22;8948;51.534;8.262;2023-04-06T02:54:00;4.60;48.80
17659;DHT22;8948;51.534;8.262;2023-04-06T02:59:01;4.60;49.30
17659;DHT22;8948;51.534;8.262;2023-04-06T03:04:02;4.50;49.30
17659;DHT22;8948;51.534;8.262;2023-04-06T03:09:03;4.50;49.40
17659;DHT22;8948;51.534;8.262;2023-04-06T03:14:04;4.40;49.40
17659;DHT22;8948;51.534;8.262;2023-04-06T03:19:05;4.40;49.50
17659;DHT22;8948;51.534;8.262;2023-04-06T03:24:06;4.40;49.50
17659;DHT22;8948;51.534;8.262;2023-04-06T03:29:07;4.30;49.50
17659;DHT22;8948;51.534;8.262;2023-04-06T03:34:07;4.30;49.90
17659;DHT22;8948;51.534;8.262;2023-04-06T03:39:08;4.20;49.70
17659;DHT22;8948;51.534;8.262;2023-04-06T03:44:09;4.20;49.70
17659;DHT22;8948;51.534;8.262;2023-04-06T03:49:09;4.10;49.70
17659;DHT22;8948;51.534;8.262;2023-04-06T03:54:10;4.20;49.60
17659;DHT22;8948;51.534;8.262;2023-04-06T03:59:10;4.20;49.60
17659;DHT22;8948;51.534;8.262;2023-04-06T04:04:11;4.10;50.00
17659;DHT22;8948;51.534;8.262;2023-04-06T04:09:12;4.10;49.70
17659;DHT22;8948;51.534;8.262;2023-04-06T04:14:12;4.00;50.10
17659;DHT22;8948;51.534;8.262;2023-04-06T04:19:13;3.90;50.00
17659;DHT22;8948;51.534;8.262;2023-04-06T04:24:14;3.80;50.30
17659;DHT22;8948;51.534;8.262;2023-04-06T04:29:14;3.80;50.60
17659;DHT22;8948;51.534;8.262;2023-04-06T04:34:15;3.80;50.90
17659;DHT22;8948;51.534;8.262;2023-04-06T04:39:16;3.80;51.10
17659;DHT22;8948;51.534;8.262;2023-04-06T04:44:16;3.80;51.10
17659;DHT22;8948;51.534;8.262;2023-04-06T04:49:17;3.70;51.40
17659;DHT22;8948;51.534;8.262;2023-04-06T04:54:18;3.70;51.70
17659;DHT22;8948;51.534;8.262;2023-04-06T04:59:19;4.00;56.80
17659;DHT22;8948;51.534;8.262;2023-04-06T05:04:20;4.00;52.00
17659;DHT22;8948;51.534;8.262;2023-04-06T05:09:21;4.00;51.20
17659;DHT22;8948;51.534;8.262;2023-04-06T05:14:21;3.80;51.30
17659;DHT22;8948;51.534;8.262;2023-04-06T05:19:22;3.80;51.50
17659;DHT22;8948;51.534;8.262;2023-04-06T05:24:22;3.80;51.00
17659;DHT22;8948;51.534;8.262;2023-04-06T05:29:23;3.80;51.10
17659;DHT22;8948;51.534;8.262;2023-04-06T05:34:24;3.90;50.80
17659;DHT22;8948;51.534;8.262;2023-04-06T05:39:24;4.00;50.20
17659;DHT22;8948;51.534;8.262;2023-04-06T05:44:26;4.10;49.80
17659;DHT22;8948;51.534;8.262;2023-04-06T05:49:26;4.30;48.60
17659;DHT22;8948;51.534;8.262;2023-04-06T05:54:27;4.40;48.60
17659;DHT22;8948;51.534;8.262;2023-04-06T05:59:27;4.60;48.60
17659;DHT22;8948;51.534;8.262;2023-04-06T06:04:28;4.70;48.60
17659;DHT22;8948;51.534;8.262;2023-04-06T06:09:29;4.90;47.90
17659;DHT22;8948;51.534;8.262;2023-04-06T06:14:30;5.00;48.20
17659;DHT22;8948;51.534;8.262;2023-04-06T06:19:30;5.20;47.80
17659;DHT22;8948;51.534;8.262;2023-04-06T06:24:31;5.40;47.40
17659;DHT22;8948;51.534;8.262;2023-04-06T06:29:32;5.60;47.40
17659;DHT22;8948;51.534;8.262;2023-04-06T06:34:32;5.80;46.30
17659;DHT22;8948;51.534;8.262;2023-04-06T06:39:33;6.00;46.10
17659;DHT22;8948;51.534;8.262;2023-04-06T06:44:33;6.30;45.90
17659;DHT22;8948;51.534;8.262;2023-04-06T06:49:34;6.50;44.90
17659;DHT22;8948;51.534;8.262;2023-04-06T06:54:35;6.80;44.10
17659;DHT22;8948;51.534;8.262;2023-04-06T06:59:36;7.00;44.10
17659;DHT22;8948;51.534;8.262;2023-04-06T07:04:36;7.30;43.80
17659;DHT22;8948;51.534;8.262;2023-04-06T07:09:37;7.60;42.60
17659;DHT22;8948;51.534;8.262;2023-04-06T07:14:37;7.90;42.30
17659;DHT22;8948;51.534;8.262;2023-04-06T07:19:38;8.10;41.70
17659;DHT22;8948;51.534;8.262;2023-04-06T07:24:39;8.30;41.70
17659;DHT22;8948;51.534;8.262;2023-04-06T07:29:40;8.50;41.60
17659;DHT22;8948;51.534;8.262;2023-04-06T07:34:40;8.80;42.10
17659;DHT22;8948;51.534;8.262;2023-04-06T07:39:41;9.00;40.70
17659;DHT22;8948;51.534;8.262;2023-04-06T07:44:42;9.00;40.70
17659;DHT22;8948;51.534;8.262;2023-04-06T07:49:42;9.30;39.50
17659;DHT22;8948;51.534;8.262;2023-04-06T07:54:43;9.50;39.50
17659;DHT22;8948;51.534;8.262;2023-04-06T07:59:44;9.70;40.70
17659;DHT22;8948;51.534;8.262;2023-04-06T08:04:45;10.00;40.70
17659;DHT22;8948;51.534;8.262;2023-04-06T08:09:45;10.00;39.30
17659;DHT22;8948;51.534;8.262;2023-04-06T08:14:47;10.10;39.80
17659;DHT22;8948;51.534;8.262;2023-04-06T08:19:48;10.30;39.70
17659;DHT22;8948;51.534;8.262;2023-04-06T08:24:48;10.40;40.20
17659;DHT22;8948;51.534;8.262;2023-04-06T08:29:50;10.70;40.70
17659;DHT22;8948;51.534;8.262;2023-04-06T08:34:54;10.90;38.90
17659;DHT22;8948;51.534;8.262;2023-04-06T08:39:54;10.90;38.70
17659;DHT22;8948;51.534;8.262;2023-04-06T08:44:55;11.00;39.90
17659;DHT22;8948;51.534;8.262;2023-04-06T08:49:56;11.40;38.90
17659;DHT22;8948;51.534;8.262;2023-04-06T08:54:58;11.70;38.50
17659;DHT22;8948;51.534;8.262;2023-04-06T09:00:00;11.80;38.40
17659;DHT22;8948;51.534;8.262;2023-04-06T09:05:01;12.00;39.80
17659;DHT22;8948;51.534;8.262;2023-04-06T09:10:03;12.10;37.60
17659;DHT22;8948;51.534;8.262;2023-04-06T09:15:04;12.40;38.50
17659;DHT22;8948;51.534;8.262;2023-04-06T09:20:05;12.80;37.50
17659;DHT22;8948;51.534;8.262;2023-04-06T09:25:08;12.90;36.80
17659;DHT22;8948;51.534;8.262;2023-04-06T09:30:10;13.00;37.60
17659;DHT22;8948;51.534;8.262;2023-04-06T09:35:14;13.40;37.90
17659;DHT22;8948;51.534;8.262;2023-04-06T09:40:15;13.70;38.90
17659;DHT22;8948;51.534;8.262;2023-04-06T09:45:17;13.50;36.00
17659;DHT22;8948;51.534;8.262;2023-04-06T09:50:19;13.60;37.50
17659;DHT22;8948;51.534;8.262;2023-04-06T09:55:42;13.90;35.00
17659;DHT22;8948;51.534;8.262;2023-04-06T10:01:00;14.20;37.70
17659;DHT22;8948;51.534;8.262;2023-04-06T10:06:05;14.30;35.20
17659;DHT22;8948;51.534;8.262;2023-04-06T10:11:07;14.40;35.80
17659;DHT22;8948;51.534;8.262;2023-04-06T10:16:08;14.40;35.90
17659;DHT22;8948;51.534;8.262;2023-04-06T10:21:11;14.80;34.80
17659;DHT22;8948;51.534;8.262;2023-04-06T10:26:15;15.10;34.80
17659;DHT22;8948;51.534;8.262;2023-04-06T10:31:26;15.20;32.30
17659;DHT22;8948;51.534;8.262;2023-04-06T10:36:32;15.30;31.90
17659;DHT22;8948;51.534;8.262;2023-04-06T10:41:43;15.30;33.00
17659;DHT22;8948;51.534;8.262;2023-04-06T10:46:56;15.50;30.30
17659;DHT22;8948;51.534;8.262;2023-04-06T10:51:57;15.60;33.30
17659;DHT22;8948;51.534;8.262;2023-04-06T10:56:58;15.80;32.10
17659;DHT22;8948;51.534;8.262;2023-04-06T11:01:58;16.00;31.90
17659;DHT22;8948;51.534;8.262;2023-04-06T11:06:59;16.40;33.80
17659;DHT22;8948;51.534;8.262;2023-04-06T11:12:00;16.80;31.40
17659;DHT22;8948;51.534;8.262;2023-04-06T11:17:01;16.60;31.50
17659;DHT22;8948;51.534;8.262;2023-04-06T11:22:08;16.60;30.50
17659;DHT22;8948;51.534;8.262;2023-04-06T11:27:09;16.60;30.70
17659;DHT22;8948;51.534;8.262;2023-04-06T11:32:10;16.70;31.60
17659;DHT22;8948;51.534;8.262;2023-04-06T11:37:12;16.60;31.40
17659;DHT22;8948;51.534;8.262;2023-04-06T11:42:12;16.30;32.90
17659;DHT22;8948;51.534;8.262;2023-04-06T11:47:13;16.60;29.90
17659;DHT22;8948;51.534;8.262;2023-04-06T11:52:16;17.10;31.00
17659;DHT22;8948;51.534;8.262;2023-04-06T11:57:18;17.50;34.50
17659;DHT22;8948;51.534;8.262;2023-04-06T12:02:19;17.80;30.70
17659;DHT22;8948;51.534;8.262;2023-04-06T12:07:20;18.00;32.10
17659;DHT22;8948;51.534;8.262;2023-04-06T12:12:20;17.90;32.30
17659;DHT22;8948;51.534;8.262;2023-04-06T12:17:21;18.20;30.50
17659;DHT22;8948;51.534;8.262;2023-04-06T12:22:22;18.00;31.60
17659;DHT22;8948;51.534;8.262;2023-04-06T12:27:22;18.20;30.10
17659;DHT22;8948;51.534;8.262;2023-04-06T12:32:23;18.40;29.90
17659;DHT22;8948;51.534;8.262;2023-04-06T12:37:24;18.20;31.30
17659;DHT22;8948;51.534;8.262;2023-04-06T12:42:25;17.60;31.60
17659;DHT22;8948;51.534;8.262;2023-04-06T12:47:26;17.50;31.30
17659;DHT22;8948;51.534;8.262;2023-04-06T12:52:26;18.00;30.60
17659;DHT22;8948;51.534;8.262;2023-04-06T12:57:27;18.60;31.80
17659;DHT22;8948;51.534;8.262;2023-04-06T13:02:29;18.60;32.00
17659;DHT22;8948;51.534;8.262;2023-04-06T13:07:30;18.30;30.00
17659;DHT22;8948;51.534;8.262;2023-04-06T13:12:30;18.20;31.20
17659;DHT22;8948;51.534;8.262;2023-04-06T13:17:31;18.20;32.30
17659;DHT22;8948;51.534;8.262;2023-04-06T13:22:31;18.40;29.50
17659;DHT22;8948;51.534;8.262;2023-04-06T13:27:32;18.20;31.50
17659;DHT22;8948;51.534;8.262;2023-04-06T13:32:34;17.80;31.20
17659;DHT22;8948;51.534;8.262;2023-04-06T13:37:35;17.80;29.20
17659;DHT22;8948;51.534;8.262;2023-04-06T13:42:36;17.90;31.30
17659;DHT22;8948;51.534;8.262;2023-04-06T13:47:38;18.00;31.40
17659;DHT22;8948;51.534;8.262;2023-04-06T13:52:38;18.20;31.60
17659;DHT22;8948;51.534;8.262;2023-04-06T13:57:39;17.80;30.80
17659;DHT22;8948;51.534;8.262;2023-04-06T14:02:40;17.60;31.50
17659;DHT22;8948;51.534;8.262;2023-04-06T14:07:41;17.70;33.10
17659;DHT22;8948;51.534;8.262;2023-04-06T14:12:42;17.70;30.90
17659;DHT22;8948;51.534;8.262;2023-04-06T14:17:44;17.40;31.90
17659;DHT22;8948;51.534;8.262;2023-04-06T14:22:45;17.10;32.50
17659;DHT22;8948;51.534;8.262;2023-04-06T14:27:45;17.40;32.30
17659;DHT22;8948;51.534;8.262;2023-04-06T14:32:46;17.30;33.80
17659;DHT22;8948;51.534;8.262;2023-04-06T14:37:46;16.90;33.70
17659;DHT22;8948;51.534;8.262;2023-04-06T14:42:47;17.00;34.50
17659;DHT22;8948;51.534;8.262;2023-04-06T14:47:48;16.90;33.50
17659;DHT22;8948;51.534;8.262;2023-04-06T14:52:48;16.90;33.50
17659;DHT22;8948;51.534;8.262;2023-04-06T14:57:49;16.60;33.70
17659;DHT22;8948;51.534;8.262;2023-04-06T15:02:50;16.40;34.80
17659;DHT22;8948;51.534;8.262;2023-04-06T15:07:50;16.30;35.40
17659;DHT22;8948;51.534;8.262;2023-04-06T15:12:51;16.10;36.20
17659;DHT22;8948;51.534;8.262;2023-04-06T15:17:52;16.20;37.10
17659;DHT22;8948;51.534;8.262;2023-04-06T15:22:52;16.20;37.30
17659;DHT22;8948;51.534;8.262;2023-04-06T15:27:54;16.30;36.30
17659;DHT22;8948;51.534;8.262;2023-04-06T15:32:57;16.40;36.50
17659;DHT22;8948;51.534;8.262;2023-04-06T15:37:58;16.00;36.40
17659;DHT22;8948;51.534;8.262;2023-04-06T15:42:59;15.80;37.40
17659;DHT22;8948;51.534;8.262;2023-04-06T15:47:59;15.60;38.90
17659;DHT22;8948;51.534;8.262;2023-04-06T15:53:00;15.40;38.70
17659;DHT22;8948;51.534;8.262;2023-04-06T15:58:01;15.10;38.80
17659;DHT22;8948;51.534;8.262;2023-04-06T16:03:02;14.80;40.00
17659;DHT22;8948;51.534;8.262;2023-04-06T16:08:02;14.80;39.00
17659;DHT22;8948;51.534;8.262;2023-04-06T16:13:03;14.80;40.20
17659;DHT22;8948;51.534;8.262;2023-04-06T16:18:04;14.60;39.60
17659;DHT22;8948;51.534;8.262;2023-04-06T16:23:04;14.50;40.20
17659;DHT22;8948;51.534;8.262;2023-04-06T16:28:05;14.40;39.90
17659;DHT22;8948;51.534;8.262;2023-04-06T16:33:06;14.40;40.10
17659;DHT22;8948;51.534;8.262;2023-04-06T16:38:07;14.50;40.40
17659;DHT22;8948;51.534;8.262;2023-04-06T16:43:07;14.40;40.20
17659;DHT22;8948;51.534;8.262;2023-04-06T16:48:09;14.20;40.70
17659;DHT22;8948;51.534;8.262;2023-04-06T16:53:09;14.20;40.50
17659;DHT22;8948;51.534;8.262;2023-04-06T16:58:10;14.10;39.80
17659;DHT22;8948;51.534;8.262;2023-04-06T17:03:11;14.00;39.90
17659;DHT22;8948;51.534;8.262;2023-04-06T17:08:11;13.90;40.20
17659;DHT22;8948;51.534;8.262;2023-04-06T17:13:12;13.80;40.80
17659;DHT22;8948;51.534;8.262;2023-04-06T17:18:12;13.60;41.10
17659;DHT22;8948;51.534;8.262;2023-04-06T17:23:14;13.30;41.00
17659;DHT22;8948;51.534;8.262;2023-04-06T17:28:14;13.30;41.40
17659;DHT22;8948;51.534;8.262;2023-04-06T17:33:15;13.30;41.60
17659;DHT22;8948;51.534;8.262;2023-04-06T17:38:16;13.30;41.70
17659;DHT22;8948;51.534;8.262;2023-04-06T17:43:17;13.10;41.60
17659;DHT22;8948;51.534;8.262;2023-04-06T17:48:18;13.10;41.40
17659;DHT22;8948;51.534;8.262;2023-04-06T17:53:18;13.10;42.20
17659;DHT22;8948;51.534;8.262;2023-04-06T17:58:19;13.00;42.90
17659;DHT22;8948;51.534;8.262;2023-04-06T18:03:21;13.00;44.00
17659;DHT22;8948;51.534;8.262;2023-04-06T18:08:22;12.80;44.20
17659;DHT22;8948;51.534;8.262;2023-04-06T18:13:22;12.50;44.70
17659;DHT22;8948;51.534;8.262;2023-04-06T18:18:23;12.40;45.30
17659;DHT22;8948;51.534;8.262;2023-04-06T18:23:24;12.40;45.40
17659;DHT22;8948;51.534;8.262;2023-04-06T18:28:24;12.40;46.30
17659;DHT22;8948;51.534;8.262;2023-04-06T18:33:25;12.30;46.50
17659;DHT22;8948;51.534;8.262;2023-04-06T18:38:28;12.20;46.90
17659;DHT22;8948;51.534;8.262;2023-04-06T18:43:29;12.10;48.20
17659;DHT22;8948;51.534;8.262;2023-04-06T18:48:29;12.10;48.30
17659;DHT22;8948;51.534;8.262;2023-04-06T18:53:30;12.00;48.60
17659;DHT22;8948;51.534;8.262;2023-04-06T18:58:30;11.80;49.60
17659;DHT22;8948;51.534;8.262;2023-04-06T19:03:32;11.80;50.40
17659;DHT22;8948;51.534;8.262;2023-04-06T19:08:32;11.80;50.50
17659;DHT22;8948;51.534;8.262;2023-04-06T19:13:33;11.60;51.60
17659;DHT22;8948;51.534;8.262;2023-04-06T19:18:34;11.60;52.10
17659;DHT22;8948;51.534;8.262;2023-04-06T19:23:36;11.40;53.50
17659;DHT22;8948;51.534;8.262;2023-04-06T19:28:37;11.30;53.80
17659;DHT22;8948;51.534;8.262;2023-04-06T19:33:38;11.30;53.80
17659;DHT22;8948;51.534;8.262;2023-04-06T19:38:39;11.30;53.70
17659;DHT22;8948;51.534;8.262;2023-04-06T19:43:40;11.40;53.90
17659;DHT22;8948;51.534;8.262;2023-04-06T19:48:40;11.20;54.60
17659;DHT22;8948;51.534;8.262;2023-04-06T19:53:41;11.00;55.50
17659;DHT22;8948;51.534;8.262;2023-04-06T19:58:42;10.90;56.10
17659;DHT22;8948;51.534;8.262;2023-04-06T20:03:42;10.90;56.60
17659;DHT22;8948;51.534;8.262;2023-04-06T20:08:43;10.60;57.60
17659;DHT22;8948;51.534;8.262;2023-04-06T20:13:44;10.50;57.90
17659;DHT22;8948;51.534;8.262;2023-04-06T20:18:44;10.40;58.50
17659;DHT22;8948;51.534;8.262;2023-04-06T20:23:45;10.40;58.80
17659;DHT22;8948;51.534;8.262;2023-04-06T20:28:45;10.20;59.20
17659;DHT22;8948;51.534;8.262;2023-04-06T20:33:46;10.20;59.50
17659;DHT22;8948;51.534;8.262;2023-04-06T20:38:47;10.20;59.80
17659;DHT22;8948;51.534;8.262;2023-04-06T20:43:47;9.90;60.60
17659;DHT22;8948;51.534;8.262;2023-04-06T20:48:48;9.90;60.40
17659;DHT22;8948;51.534;8.262;2023-04-06T20:53:48;9.90;60.40
17659;DHT22;8948;51.534;8.262;2023-04-06T20:58:49;9.80;60.40
17659;DHT22;8948;51.534;8.262;2023-04-06T21:03:50;9.70;61.40
17659;DHT22;8948;51.534;8.262;2023-04-06T21:08:50;9.50;61.20
17659;DHT22;8948;51.534;8.262;2023-04-06T21:13:51;9.40;61.70
17659;DHT22;8948;51.534;8.262;2023-04-06T21:18:51;9.40;61.90
17659;DHT22;8948;51.534;8.262;2023-04-06T21:23:52;9.30;62.40
17659;DHT22;8948;51.534;8.262;2023-04-06T21:28:53;9.10;63.00
17659;DHT22;8948;51.534;8.262;2023-04-06T21:33:53;9.20;63.50
17659;DHT22;8948;51.534;8.262;2023-04-06T21:38:54;9.00;64.50
17659;DHT22;8948;51.534;8.262;2023-04-06T21:43:54;8.80;65.60
17659;DHT22;8948;51.534;8.262;2023-04-06T21:48:55;8.70;65.90
17659;DHT22;8948;51.534;8.262;2023-04-06T21:53:56;8.60;66.30
17659;DHT22;8948;51.534;8.262;2023-04-06T21:58:56;8.60;66.70
17659;DHT22;8948;51.534;8.262;2023-04-06T22:03:57;8.60;66.70
17659;DHT22;8948;51.534;8.262;2023-04-06T22:08:57;8.50;67.40
17659;DHT22;8948;51.534;8.262;2023-04-06T22:13:59;8.50;67.30
17659;DHT22;8948;51.534;8.262;2023-04-06T22:19:00;8.50;67.20
17659;DHT22;8948;51.534;8.262;2023-04-06T22:24:01;8.50;68.30
17659;DHT22;8948;51.534;8.262;2023-04-06T22:29:02;8.50;68.20
17659;DHT22;8948;51.534;8.262;2023-04-06T22:34:02;8.50;67.50
17659;DHT22;8948;51.534;8.262;2023-04-06T22:39:03;8.50;68.20
17659;DHT22;8948;51.534;8.262;2023-04-06T22:44:03;8.50;67.90
17659;DHT22;8948;51.534;8.262;2023-04-06T22:49:04;8.40;68.20
17659;DHT22;8948;51.534;8.262;2023-04-06T22:54:05;8.40;67.60
17659;DHT22;8948;51.534;8.262;2023-04-06T22:59:05;8.50;67.80
17659;DHT22;8948;51.534;8.262;2023-04-06T23:04:06;8.50;68.20
17659;DHT22;8948;51.534;8.262;2023-04-06T23:09:07;8.50;68.50
17659;DHT22;8948;51.534;8.262;2023-04-06T23:14:07;8.40;68.40
17659;DHT22;8948;51.534;8.262;2023-04-06T23:19:08;8.50;68.40
17659;DHT22;8948;51.534;8.262;2023-04-06T23:24:09;8.40;69.40
17659;DHT22;8948;51.534;8.262;2023-04-06T23:29:09;8.40;69.10
17659;DHT22;8948;51.534;8.262;2023-04-06T23:34:10;8.30;69.40
17659;DHT22;8948;51.534;8.262;2023-04-06T23:39:10;8.30;69.40
17659;DHT22;8948;51.534;8.262;2023-04-06T23:44:11;8.30;69.70
17659;DHT22;8948;51.534;8.262;2023-04-06T23:49:12;8.20;69.70
17659;DHT22;8948;51.534;8.262;2023-04-06T23:54:12;8.30;69.50
17659;DHT22;8948;51.534;8.262;2023-04-06T23:59:13;8.30;70.20
